sensor_id;sensor_type;location;lat;lon;timestamp;P1;durP1;ratioP1;P2;durP2;ratioP2
33644;SDS011;19986;48.190;16.366;2024-01-30T00:00:20;60.80;;;56.47;;
33644;SDS011;19986;48.190;16.366;2024-01-30T00:02:49;62.88;;;58.67;;
33644;SDS011;19986;48.190;16.366;2024-01-30T00:05:25;62.40;;;57.80;;
33644;SDS011;19986;48.190;16.366;2024-01-30T00:07:51;63.17;;;58.85;;
33644;SDS011;19986;48.190;16.366;2024-01-30T00:10:17;61.83;;;57.55;;
33644;SDS011;19986;48.190;16.366;2024-01-30T00:12:43;60.53;;;56.15;;
33644;SDS011;19986;48.190;16.366;2024-01-30T00:15:11;63.22;;;58.75;;
33644;SDS011;19986;48.190;16.366;2024-01-30T00:17:38;63.33;;;58.67;;
33644;SDS011;19986;48.190;16.366;2024-01-30T00:20:09;61.10;;;56.80;;
33644;SDS011;19986;48.190;16.366;2024-01-30T00:22:38;61.17;;;56.53;;
33644;SDS011;19986;48.190;16.366;2024-01-30T00:25:08;59.53;;;55.30;;
33644;SDS011;19986;48.190;16.366;2024-01-30T00:27:35;63.45;;;58.95;;
33644;SDS011;19986;48.190;16.366;2024-01-30T00:30:01;63.38;;;58.67;;
33644;SDS011;19986;48.190;16.366;2024-01-30T00:32:27;64.68;;;60.00;;
33644;SDS011;19986;48.190;16.366;2024-01-30T00:34:53;61.42;;;56.95;;
33644;SDS011;19986;48.190;16.366;2024-01-30T00:37:19;62.88;;;58.38;;
33644;SDS011;19986;48.190;16.366;2024-01-30T00:39:45;59.72;;;55.28;;
33644;SDS011;19986;48.190;16.366;2024-01-30T00:42:11;64.25;;;59.45;;
33644;SDS011;19986;48.190;16.366;2024-01-30T00:44:37;62.67;;;57.75;;
33644;SDS011;19986;48.190;16.366;2024-01-30T00:47:04;62.28;;;57.78;;
33644;SDS011;19986;48.190;16.366;2024-01-30T00:49:30;62.90;;;58.50;;
33644;SDS011;19986;48.190;16.366;2024-01-30T00:51:56;62.22;;;57.95;;
33644;SDS011;19986;48.190;16.366;2024-01-30T00:54:23;62.05;;;57.42;;
33644;SDS011;19986;48.190;16.366;2024-01-30T00:56:49;58.92;;;54.63;;
33644;SDS011;19986;48.190;16.366;2024-01-30T00:59:15;65.80;;;60.92;;
33644;SDS011;19986;48.190;16.366;2024-01-30T01:01:40;62.83;;;58.22;;
33644;SDS011;19986;48.190;16.366;2024-01-30T01:04:07;61.78;;;57.22;;
33644;SDS011;19986;48.190;16.366;2024-01-30T01:06:33;64.60;;;59.88;;
33644;SDS011;19986;48.190;16.366;2024-01-30T01:08:59;61.58;;;57.28;;
33644;SDS011;19986;48.190;16.366;2024-01-30T01:11:25;64.15;;;59.60;;
33644;SDS011;19986;48.190;16.366;2024-01-30T01:13:50;63.53;;;58.60;;
33644;SDS011;19986;48.190;16.366;2024-01-30T01:16:16;60.65;;;56.03;;
33644;SDS011;19986;48.190;16.366;2024-01-30T01:18:42;62.38;;;57.70;;
33644;SDS011;19986;48.190;16.366;2024-01-30T01:21:08;62.00;;;57.63;;
33644;SDS011;19986;48.190;16.366;2024-01-30T01:23:34;63.20;;;58.83;;
33644;SDS011;19986;48.190;16.366;2024-01-30T01:26:00;64.55;;;60.17;;
33644;SDS011;19986;48.190;16.366;2024-01-30T01:28:26;61.63;;;56.83;;
33644;SDS011;19986;48.190;16.366;2024-01-30T01:30:52;64.95;;;60.35;;
33644;SDS011;19986;48.190;16.366;2024-01-30T01:33:24;64.93;;;60.10;;
33644;SDS011;19986;48.190;16.366;2024-01-30T01:35:52;61.28;;;56.65;;
33644;SDS011;19986;48.190;16.366;2024-01-30T01:38:19;61.75;;;57.08;;
33644;SDS011;19986;48.190;16.366;2024-01-30T01:40:46;62.83;;;58.58;;
33644;SDS011;19986;48.190;16.366;2024-01-30T01:43:13;62.72;;;58.33;;
33644;SDS011;19986;48.190;16.366;2024-01-30T01:45:39;65.28;;;60.83;;
33644;SDS011;19986;48.190;16.366;2024-01-30T01:48:05;61.40;;;57.00;;
33644;SDS011;19986;48.190;16.366;2024-01-30T01:50:34;60.72;;;56.35;;
33644;SDS011;19986;48.190;16.366;2024-01-30T01:53:01;62.25;;;57.88;;
33644;SDS011;19986;48.190;16.366;2024-01-30T01:55:29;63.35;;;58.88;;
33644;SDS011;19986;48.190;16.366;2024-01-30T01:57:57;64.75;;;60.22;;
33644;SDS011;19986;48.190;16.366;2024-01-30T02:00:23;59.80;;;55.55;;
33644;SDS011;19986;48.190;16.366;2024-01-30T02:02:50;61.55;;;57.25;;
33644;SDS011;19986;48.190;16.366;2024-01-30T02:05:23;63.90;;;59.08;;
33644;SDS011;19986;48.190;16.366;2024-01-30T02:07:52;61.20;;;57.10;;
33644;SDS011;19986;48.190;16.366;2024-01-30T02:10:19;65.63;;;61.10;;
33644;SDS011;19986;48.190;16.366;2024-01-30T02:12:45;60.70;;;56.25;;
33644;SDS011;19986;48.190;16.366;2024-01-30T02:15:13;64.57;;;59.97;;
33644;SDS011;19986;48.190;16.366;2024-01-30T02:17:40;60.58;;;56.38;;
33644;SDS011;19986;48.190;16.366;2024-01-30T02:20:06;62.10;;;57.50;;
33644;SDS011;19986;48.190;16.366;2024-01-30T02:22:34;61.42;;;56.97;;
33644;SDS011;19986;48.190;16.366;2024-01-30T02:25:02;62.72;;;58.30;;
33644;SDS011;19986;48.190;16.366;2024-01-30T02:27:29;62.25;;;57.58;;
33644;SDS011;19986;48.190;16.366;2024-01-30T02:29:55;62.35;;;58.00;;
33644;SDS011;19986;48.190;16.366;2024-01-30T02:32:22;64.88;;;60.05;;
33644;SDS011;19986;48.190;16.366;2024-01-30T02:34:48;62.88;;;58.53;;
33644;SDS011;19986;48.190;16.366;2024-01-30T02:37:14;63.00;;;58.55;;
33644;SDS011;19986;48.190;16.366;2024-01-30T02:39:41;63.67;;;59.17;;
33644;SDS011;19986;48.190;16.366;2024-01-30T02:42:08;60.15;;;55.63;;
33644;SDS011;19986;48.190;16.366;2024-01-30T02:44:35;61.25;;;56.78;;
33644;SDS011;19986;48.190;16.366;2024-01-30T02:47:06;62.95;;;58.42;;
33644;SDS011;19986;48.190;16.366;2024-01-30T02:49:32;60.08;;;55.78;;
33644;SDS011;19986;48.190;16.366;2024-01-30T02:51:58;64.25;;;59.85;;
33644;SDS011;19986;48.190;16.366;2024-01-30T02:54:24;61.28;;;56.92;;
33644;SDS011;19986;48.190;16.366;2024-01-30T02:56:50;64.20;;;59.80;;
33644;SDS011;19986;48.190;16.366;2024-01-30T02:59:16;63.88;;;59.38;;
33644;SDS011;19986;48.190;16.366;2024-01-30T03:01:45;59.95;;;55.83;;
33644;SDS011;19986;48.190;16.366;2024-01-30T03:04:11;64.03;;;59.65;;
33644;SDS011;19986;48.190;16.366;2024-01-30T03:06:37;64.28;;;59.75;;
33644;SDS011;19986;48.190;16.366;2024-01-30T03:09:03;63.83;;;59.15;;
33644;SDS011;19986;48.190;16.366;2024-01-30T03:11:30;62.90;;;58.38;;
33644;SDS011;19986;48.190;16.366;2024-01-30T03:13:56;61.88;;;57.45;;
33644;SDS011;19986;48.190;16.366;2024-01-30T03:16:25;63.58;;;58.92;;
33644;SDS011;19986;48.190;16.366;2024-01-30T03:18:51;61.05;;;56.70;;
33644;SDS011;19986;48.190;16.366;2024-01-30T03:21:17;62.45;;;58.05;;
33644;SDS011;19986;48.190;16.366;2024-01-30T03:23:42;64.85;;;60.20;;
33644;SDS011;19986;48.190;16.366;2024-01-30T03:26:08;61.53;;;57.25;;
33644;SDS011;19986;48.190;16.366;2024-01-30T03:28:35;61.95;;;57.58;;
33644;SDS011;19986;48.190;16.366;2024-01-30T03:31:01;62.42;;;57.80;;
33644;SDS011;19986;48.190;16.366;2024-01-30T03:33:27;61.50;;;57.17;;
33644;SDS011;19986;48.190;16.366;2024-01-30T03:35:53;64.45;;;60.08;;
33644;SDS011;19986;48.190;16.366;2024-01-30T03:38:19;64.07;;;59.25;;
33644;SDS011;19986;48.190;16.366;2024-01-30T03:40:45;63.33;;;58.70;;
33644;SDS011;19986;48.190;16.366;2024-01-30T03:43:14;63.80;;;59.30;;
33644;SDS011;19986;48.190;16.366;2024-01-30T03:45:40;64.05;;;59.40;;
33644;SDS011;19986;48.190;16.366;2024-01-30T03:48:06;63.70;;;58.88;;
33644;SDS011;19986;48.190;16.366;2024-01-30T03:50:32;64.20;;;59.67;;
33644;SDS011;19986;48.190;16.366;2024-01-30T03:52:58;62.80;;;58.25;;
33644;SDS011;19986;48.190;16.366;2024-01-30T03:55:24;65.20;;;60.30;;
33644;SDS011;19986;48.190;16.366;2024-01-30T03:57:50;62.53;;;58.15;;
33644;SDS011;19986;48.190;16.366;2024-01-30T04:00:16;63.40;;;58.97;;
33644;SDS011;19986;48.190;16.366;2024-01-30T04:02:42;61.80;;;57.38;;
33644;SDS011;19986;48.190;16.366;2024-01-30T04:05:08;63.15;;;58.45;;
33644;SDS011;19986;48.190;16.366;2024-01-30T04:07:33;65.25;;;60.60;;
33644;SDS011;19986;48.190;16.366;2024-01-30T04:10:01;64.25;;;59.75;;
33644;SDS011;19986;48.190;16.366;2024-01-30T04:12:27;64.82;;;60.35;;
33644;SDS011;19986;48.190;16.366;2024-01-30T04:14:54;63.05;;;58.25;;
33644;SDS011;19986;48.190;16.366;2024-01-30T04:17:20;67.35;;;61.85;;
33644;SDS011;19986;48.190;16.366;2024-01-30T04:19:46;66.82;;;61.97;;
33644;SDS011;19986;48.190;16.366;2024-01-30T04:22:12;67.90;;;62.88;;
33644;SDS011;19986;48.190;16.366;2024-01-30T04:24:38;65.05;;;60.38;;
33644;SDS011;19986;48.190;16.366;2024-01-30T04:27:03;62.63;;;57.83;;
33644;SDS011;19986;48.190;16.366;2024-01-30T04:29:29;66.25;;;61.30;;
33644;SDS011;19986;48.190;16.366;2024-01-30T04:31:55;65.88;;;61.17;;
33644;SDS011;19986;48.190;16.366;2024-01-30T04:34:21;69.80;;;64.47;;
33644;SDS011;19986;48.190;16.366;2024-01-30T04:36:47;66.45;;;61.78;;
33644;SDS011;19986;48.190;16.366;2024-01-30T04:39:13;65.53;;;60.75;;
33644;SDS011;19986;48.190;16.366;2024-01-30T04:41:39;67.60;;;62.45;;
33644;SDS011;19986;48.190;16.366;2024-01-30T04:44:05;70.00;;;64.55;;
33644;SDS011;19986;48.190;16.366;2024-01-30T04:46:32;65.68;;;61.10;;
33644;SDS011;19986;48.190;16.366;2024-01-30T04:49:00;69.40;;;64.15;;
33644;SDS011;19986;48.190;16.366;2024-01-30T04:51:29;66.30;;;61.33;;
33644;SDS011;19986;48.190;16.366;2024-01-30T04:53:56;68.45;;;63.15;;
33644;SDS011;19986;48.190;16.366;2024-01-30T04:56:22;67.00;;;62.33;;
33644;SDS011;19986;48.190;16.366;2024-01-30T04:58:48;66.22;;;61.60;;
33644;SDS011;19986;48.190;16.366;2024-01-30T05:01:14;68.03;;;62.80;;
33644;SDS011;19986;48.190;16.366;2024-01-30T05:03:41;65.32;;;60.35;;
33644;SDS011;19986;48.190;16.366;2024-01-30T05:06:07;65.05;;;60.30;;
33644;SDS011;19986;48.190;16.366;2024-01-30T05:08:33;70.72;;;65.22;;
33644;SDS011;19986;48.190;16.366;2024-01-30T05:11:02;69.57;;;64.35;;
33644;SDS011;19986;48.190;16.366;2024-01-30T05:13:31;68.00;;;62.88;;
33644;SDS011;19986;48.190;16.366;2024-01-30T05:15:57;67.35;;;62.38;;
33644;SDS011;19986;48.190;16.366;2024-01-30T05:18:23;67.68;;;62.67;;
33644;SDS011;19986;48.190;16.366;2024-01-30T05:20:51;68.38;;;63.17;;
33644;SDS011;19986;48.190;16.366;2024-01-30T05:23:17;102.93;;;78.35;;
33644;SDS011;19986;48.190;16.366;2024-01-30T05:25:43;70.85;;;65.50;;
33644;SDS011;19986;48.190;16.366;2024-01-30T05:28:09;68.50;;;63.20;;
33644;SDS011;19986;48.190;16.366;2024-01-30T05:30:35;69.22;;;63.92;;
33644;SDS011;19986;48.190;16.366;2024-01-30T05:33:01;67.63;;;62.63;;
33644;SDS011;19986;48.190;16.366;2024-01-30T05:35:26;68.03;;;62.50;;
33644;SDS011;19986;48.190;16.366;2024-01-30T05:37:53;67.90;;;62.90;;
33644;SDS011;19986;48.190;16.366;2024-01-30T05:40:18;65.88;;;60.97;;
33644;SDS011;19986;48.190;16.366;2024-01-30T05:42:44;65.25;;;60.05;;
33644;SDS011;19986;48.190;16.366;2024-01-30T05:45:10;68.22;;;63.03;;
33644;SDS011;19986;48.190;16.366;2024-01-30T05:47:36;67.82;;;63.05;;
33644;SDS011;19986;48.190;16.366;2024-01-30T05:50:02;65.30;;;60.45;;
33644;SDS011;19986;48.190;16.366;2024-01-30T05:52:28;66.65;;;61.40;;
33644;SDS011;19986;48.190;16.366;2024-01-30T05:54:54;66.15;;;61.05;;
33644;SDS011;19986;48.190;16.366;2024-01-30T05:57:20;66.82;;;61.90;;
33644;SDS011;19986;48.190;16.366;2024-01-30T05:59:46;66.65;;;61.78;;
33644;SDS011;19986;48.190;16.366;2024-01-30T06:02:13;67.10;;;62.08;;
33644;SDS011;19986;48.190;16.366;2024-01-30T06:04:39;67.85;;;62.40;;
33644;SDS011;19986;48.190;16.366;2024-01-30T06:07:05;65.18;;;60.00;;
33644;SDS011;19986;48.190;16.366;2024-01-30T06:09:31;64.63;;;59.63;;
33644;SDS011;19986;48.190;16.366;2024-01-30T06:11:57;66.32;;;60.72;;
33644;SDS011;19986;48.190;16.366;2024-01-30T06:14:23;65.80;;;60.53;;
33644;SDS011;19986;48.190;16.366;2024-01-30T06:16:49;65.95;;;60.90;;
33644;SDS011;19986;48.190;16.366;2024-01-30T06:19:15;66.95;;;61.80;;
33644;SDS011;19986;48.190;16.366;2024-01-30T06:21:41;66.45;;;61.35;;
33644;SDS011;19986;48.190;16.366;2024-01-30T06:24:07;62.60;;;58.10;;
33644;SDS011;19986;48.190;16.366;2024-01-30T06:26:33;63.92;;;59.03;;
33644;SDS011;19986;48.190;16.366;2024-01-30T06:28:59;65.75;;;60.85;;
33644;SDS011;19986;48.190;16.366;2024-01-30T06:31:25;63.30;;;58.45;;
33644;SDS011;19986;48.190;16.366;2024-01-30T06:33:51;63.25;;;58.38;;
33644;SDS011;19986;48.190;16.366;2024-01-30T06:36:17;68.25;;;63.33;;
33644;SDS011;19986;48.190;16.366;2024-01-30T06:38:44;66.15;;;61.15;;
33644;SDS011;19986;48.190;16.366;2024-01-30T06:41:10;64.03;;;59.10;;
33644;SDS011;19986;48.190;16.366;2024-01-30T06:43:36;67.68;;;62.13;;
33644;SDS011;19986;48.190;16.366;2024-01-30T06:46:02;66.80;;;61.95;;
33644;SDS011;19986;48.190;16.366;2024-01-30T06:48:28;65.20;;;60.45;;
33644;SDS011;19986;48.190;16.366;2024-01-30T06:50:56;65.35;;;60.33;;
33644;SDS011;19986;48.190;16.366;2024-01-30T06:53:22;66.35;;;61.33;;
33644;SDS011;19986;48.190;16.366;2024-01-30T06:55:48;66.63;;;61.80;;
33644;SDS011;19986;48.190;16.366;2024-01-30T06:58:14;64.13;;;59.25;;
33644;SDS011;19986;48.190;16.366;2024-01-30T07:00:40;66.32;;;61.03;;
33644;SDS011;19986;48.190;16.366;2024-01-30T07:03:09;66.55;;;61.60;;
33644;SDS011;19986;48.190;16.366;2024-01-30T07:05:35;70.75;;;64.85;;
33644;SDS011;19986;48.190;16.366;2024-01-30T07:08:01;66.05;;;61.08;;
33644;SDS011;19986;48.190;16.366;2024-01-30T07:10:27;64.03;;;59.35;;
33644;SDS011;19986;48.190;16.366;2024-01-30T07:12:54;67.07;;;61.92;;
33644;SDS011;19986;48.190;16.366;2024-01-30T07:15:20;66.15;;;61.00;;
33644;SDS011;19986;48.190;16.366;2024-01-30T07:17:46;66.85;;;61.25;;
33644;SDS011;19986;48.190;16.366;2024-01-30T07:20:12;63.25;;;58.22;;
33644;SDS011;19986;48.190;16.366;2024-01-30T07:22:39;64.88;;;60.20;;
33644;SDS011;19986;48.190;16.366;2024-01-30T07:25:05;67.57;;;62.28;;
33644;SDS011;19986;48.190;16.366;2024-01-30T07:27:32;66.00;;;60.72;;
33644;SDS011;19986;48.190;16.366;2024-01-30T07:29:58;68.57;;;63.20;;
33644;SDS011;19986;48.190;16.366;2024-01-30T07:32:24;68.22;;;63.13;;
33644;SDS011;19986;48.190;16.366;2024-01-30T07:35:06;69.53;;;64.45;;
33644;SDS011;19986;48.190;16.366;2024-01-30T07:37:32;66.72;;;61.53;;
33644;SDS011;19986;48.190;16.366;2024-01-30T07:39:58;67.78;;;62.35;;
33644;SDS011;19986;48.190;16.366;2024-01-30T07:42:23;67.43;;;61.95;;
33644;SDS011;19986;48.190;16.366;2024-01-30T07:44:49;67.47;;;62.47;;
33644;SDS011;19986;48.190;16.366;2024-01-30T07:47:15;66.90;;;61.60;;
33644;SDS011;19986;48.190;16.366;2024-01-30T07:49:41;64.18;;;59.45;;
33644;SDS011;19986;48.190;16.366;2024-01-30T07:52:07;66.25;;;61.40;;
33644;SDS011;19986;48.190;16.366;2024-01-30T07:54:34;68.30;;;62.67;;
33644;SDS011;19986;48.190;16.366;2024-01-30T07:57:15;64.55;;;59.70;;
33644;SDS011;19986;48.190;16.366;2024-01-30T07:59:42;66.65;;;61.47;;
33644;SDS011;19986;48.190;16.366;2024-01-30T08:02:14;62.10;;;57.47;;
33644;SDS011;19986;48.190;16.366;2024-01-30T08:04:40;65.25;;;60.05;;
33644;SDS011;19986;48.190;16.366;2024-01-30T08:07:06;68.60;;;62.88;;
33644;SDS011;19986;48.190;16.366;2024-01-30T08:09:33;66.28;;;61.22;;
33644;SDS011;19986;48.190;16.366;2024-01-30T08:11:59;65.82;;;60.63;;
33644;SDS011;19986;48.190;16.366;2024-01-30T08:14:25;62.08;;;57.28;;
33644;SDS011;19986;48.190;16.366;2024-01-30T08:16:51;62.47;;;57.65;;
33644;SDS011;19986;48.190;16.366;2024-01-30T08:19:17;64.63;;;60.03;;
33644;SDS011;19986;48.190;16.366;2024-01-30T08:21:43;63.25;;;58.22;;
33644;SDS011;19986;48.190;16.366;2024-01-30T08:24:09;65.72;;;60.65;;
33644;SDS011;19986;48.190;16.366;2024-01-30T08:26:35;66.93;;;62.22;;
33644;SDS011;19986;48.190;16.366;2024-01-30T08:29:02;66.30;;;61.80;;
33644;SDS011;19986;48.190;16.366;2024-01-30T08:31:28;66.95;;;62.15;;
33644;SDS011;19986;48.190;16.366;2024-01-30T08:33:54;67.22;;;62.45;;
33644;SDS011;19986;48.190;16.366;2024-01-30T08:36:20;62.13;;;57.47;;
33644;SDS011;19986;48.190;16.366;2024-01-30T08:38:46;66.20;;;61.58;;
33644;SDS011;19986;48.190;16.366;2024-01-30T08:41:13;64.00;;;59.30;;
33644;SDS011;19986;48.190;16.366;2024-01-30T08:43:38;64.05;;;59.10;;
33644;SDS011;19986;48.190;16.366;2024-01-30T08:46:04;66.50;;;61.58;;
33644;SDS011;19986;48.190;16.366;2024-01-30T08:48:30;66.30;;;61.35;;
33644;SDS011;19986;48.190;16.366;2024-01-30T08:50:56;64.10;;;59.42;;
33644;SDS011;19986;48.190;16.366;2024-01-30T08:53:23;63.65;;;59.13;;
33644;SDS011;19986;48.190;16.366;2024-01-30T08:55:49;60.28;;;55.90;;
33644;SDS011;19986;48.190;16.366;2024-01-30T08:58:15;66.43;;;61.63;;
33644;SDS011;19986;48.190;16.366;2024-01-30T09:00:43;65.30;;;60.50;;
33644;SDS011;19986;48.190;16.366;2024-01-30T09:03:09;65.47;;;60.97;;
33644;SDS011;19986;48.190;16.366;2024-01-30T09:05:35;63.50;;;59.08;;
33644;SDS011;19986;48.190;16.366;2024-01-30T09:08:01;63.55;;;59.08;;
33644;SDS011;19986;48.190;16.366;2024-01-30T09:10:27;60.35;;;55.47;;
33644;SDS011;19986;48.190;16.366;2024-01-30T09:12:53;63.03;;;58.25;;
33644;SDS011;19986;48.190;16.366;2024-01-30T09:15:19;61.28;;;56.80;;
33644;SDS011;19986;48.190;16.366;2024-01-30T09:17:45;61.72;;;57.40;;
33644;SDS011;19986;48.190;16.366;2024-01-30T09:20:14;63.08;;;58.42;;
33644;SDS011;19986;48.190;16.366;2024-01-30T09:22:40;62.47;;;58.08;;
33644;SDS011;19986;48.190;16.366;2024-01-30T09:25:06;63.35;;;58.88;;
33644;SDS011;19986;48.190;16.366;2024-01-30T09:27:32;63.15;;;58.40;;
33644;SDS011;19986;48.190;16.366;2024-01-30T09:29:58;63.92;;;59.10;;
33644;SDS011;19986;48.190;16.366;2024-01-30T09:32:24;62.67;;;58.22;;
33644;SDS011;19986;48.190;16.366;2024-01-30T09:34:50;61.70;;;57.00;;
33644;SDS011;19986;48.190;16.366;2024-01-30T09:37:16;62.28;;;57.80;;
33644;SDS011;19986;48.190;16.366;2024-01-30T09:39:43;61.10;;;56.88;;
33644;SDS011;19986;48.190;16.366;2024-01-30T09:42:17;65.05;;;60.28;;
33644;SDS011;19986;48.190;16.366;2024-01-30T09:44:53;64.88;;;60.13;;
33644;SDS011;19986;48.190;16.366;2024-01-30T09:47:19;63.42;;;58.65;;
33644;SDS011;19986;48.190;16.366;2024-01-30T09:49:45;62.67;;;57.97;;
33644;SDS011;19986;48.190;16.366;2024-01-30T09:52:13;63.95;;;59.50;;
33644;SDS011;19986;48.190;16.366;2024-01-30T09:54:40;63.63;;;58.92;;
33644;SDS011;19986;48.190;16.366;2024-01-30T09:57:07;61.40;;;56.85;;
33644;SDS011;19986;48.190;16.366;2024-01-30T09:59:33;64.07;;;59.35;;
33644;SDS011;19986;48.190;16.366;2024-01-30T10:02:00;62.78;;;58.25;;
33644;SDS011;19986;48.190;16.366;2024-01-30T10:04:26;61.88;;;57.38;;
33644;SDS011;19986;48.190;16.366;2024-01-30T10:06:52;60.78;;;56.13;;
33644;SDS011;19986;48.190;16.366;2024-01-30T10:09:18;61.58;;;57.00;;
33644;SDS011;19986;48.190;16.366;2024-01-30T10:11:45;63.92;;;59.10;;
33644;SDS011;19986;48.190;16.366;2024-01-30T10:14:11;63.70;;;59.08;;
33644;SDS011;19986;48.190;16.366;2024-01-30T10:16:36;62.15;;;57.75;;
33644;SDS011;19986;48.190;16.366;2024-01-30T10:19:03;59.10;;;54.80;;
33644;SDS011;19986;48.190;16.366;2024-01-30T10:21:29;64.38;;;59.65;;
33644;SDS011;19986;48.190;16.366;2024-01-30T10:23:55;62.40;;;57.60;;
33644;SDS011;19986;48.190;16.366;2024-01-30T10:26:21;62.63;;;57.85;;
33644;SDS011;19986;48.190;16.366;2024-01-30T10:28:47;60.88;;;56.15;;
33644;SDS011;19986;48.190;16.366;2024-01-30T10:31:17;62.50;;;57.80;;
33644;SDS011;19986;48.190;16.366;2024-01-30T10:33:46;60.92;;;56.10;;
33644;SDS011;19986;48.190;16.366;2024-01-30T10:36:13;61.20;;;56.50;;
33644;SDS011;19986;48.190;16.366;2024-01-30T10:38:42;59.45;;;54.95;;
33644;SDS011;19986;48.190;16.366;2024-01-30T10:41:11;61.47;;;57.05;;
33644;SDS011;19986;48.190;16.366;2024-01-30T10:43:40;59.88;;;55.42;;
33644;SDS011;19986;48.190;16.366;2024-01-30T10:46:18;62.45;;;57.78;;
33644;SDS011;19986;48.190;16.366;2024-01-30T10:48:56;62.80;;;58.10;;
33644;SDS011;19986;48.190;16.366;2024-01-30T10:51:26;60.35;;;55.95;;
33644;SDS011;19986;48.190;16.366;2024-01-30T10:53:53;65.05;;;60.13;;
33644;SDS011;19986;48.190;16.366;2024-01-30T10:56:20;62.50;;;57.40;;
33644;SDS011;19986;48.190;16.366;2024-01-30T10:58:49;61.08;;;56.47;;
33644;SDS011;19986;48.190;16.366;2024-01-30T11:01:16;60.25;;;55.65;;
33644;SDS011;19986;48.190;16.366;2024-01-30T11:03:43;60.95;;;56.67;;
33644;SDS011;19986;48.190;16.366;2024-01-30T11:06:13;62.67;;;58.17;;
33644;SDS011;19986;48.190;16.366;2024-01-30T11:08:43;62.65;;;58.00;;
33644;SDS011;19986;48.190;16.366;2024-01-30T11:11:10;59.35;;;55.08;;
33644;SDS011;19986;48.190;16.366;2024-01-30T11:13:36;61.38;;;57.13;;
33644;SDS011;19986;48.190;16.366;2024-01-30T11:16:05;63.00;;;58.03;;
33644;SDS011;19986;48.190;16.366;2024-01-30T11:18:32;62.35;;;57.85;;
33644;SDS011;19986;48.190;16.366;2024-01-30T11:20:59;61.55;;;57.42;;
33644;SDS011;19986;48.190;16.366;2024-01-30T11:23:30;61.53;;;56.72;;
33644;SDS011;19986;48.190;16.366;2024-01-30T11:25:58;58.60;;;54.50;;
33644;SDS011;19986;48.190;16.366;2024-01-30T11:28:24;59.28;;;55.25;;
33644;SDS011;19986;48.190;16.366;2024-01-30T11:31:02;58.70;;;54.83;;
33644;SDS011;19986;48.190;16.366;2024-01-30T11:33:29;57.67;;;53.50;;
33644;SDS011;19986;48.190;16.366;2024-01-30T11:35:59;56.53;;;52.78;;
33644;SDS011;19986;48.190;16.366;2024-01-30T11:38:27;59.08;;;55.25;;
33644;SDS011;19986;48.190;16.366;2024-01-30T11:40:54;55.83;;;52.15;;
33644;SDS011;19986;48.190;16.366;2024-01-30T11:43:23;57.95;;;54.20;;
33644;SDS011;19986;48.190;16.366;2024-01-30T11:45:49;54.92;;;51.15;;
33644;SDS011;19986;48.190;16.366;2024-01-30T11:48:15;56.50;;;52.83;;
33644;SDS011;19986;48.190;16.366;2024-01-30T11:50:42;57.03;;;53.05;;
33644;SDS011;19986;48.190;16.366;2024-01-30T11:53:11;55.80;;;52.25;;
33644;SDS011;19986;48.190;16.366;2024-01-30T11:55:37;58.83;;;54.63;;
33644;SDS011;19986;48.190;16.366;2024-01-30T11:58:03;57.35;;;53.40;;
33644;SDS011;19986;48.190;16.366;2024-01-30T12:00:29;57.47;;;53.65;;
33644;SDS011;19986;48.190;16.366;2024-01-30T12:02:58;56.00;;;52.30;;
33644;SDS011;19986;48.190;16.366;2024-01-30T12:05:26;56.15;;;52.30;;
33644;SDS011;19986;48.190;16.366;2024-01-30T12:07:52;55.03;;;51.38;;
33644;SDS011;19986;48.190;16.366;2024-01-30T12:10:18;55.92;;;52.25;;
33644;SDS011;19986;48.190;16.366;2024-01-30T12:12:47;57.22;;;53.42;;
33644;SDS011;19986;48.190;16.366;2024-01-30T12:15:15;53.55;;;50.15;;
33644;SDS011;19986;48.190;16.366;2024-01-30T12:17:41;57.83;;;53.88;;
33644;SDS011;19986;48.190;16.366;2024-01-30T12:20:14;54.63;;;51.08;;
33644;SDS011;19986;48.190;16.366;2024-01-30T12:22:43;56.58;;;52.63;;
33644;SDS011;19986;48.190;16.366;2024-01-30T12:27:37;58.45;;;54.60;;
33644;SDS011;19986;48.190;16.366;2024-01-30T12:30:07;57.85;;;54.03;;
33644;SDS011;19986;48.190;16.366;2024-01-30T12:32:34;58.10;;;54.22;;
33644;SDS011;19986;48.190;16.366;2024-01-30T12:35:01;56.58;;;52.80;;
33644;SDS011;19986;48.190;16.366;2024-01-30T12:37:27;57.45;;;53.72;;
33644;SDS011;19986;48.190;16.366;2024-01-30T12:39:55;55.95;;;52.03;;
33644;SDS011;19986;48.190;16.366;2024-01-30T12:42:21;57.00;;;53.15;;
33644;SDS011;19986;48.190;16.366;2024-01-30T12:44:48;56.47;;;52.72;;
33644;SDS011;19986;48.190;16.366;2024-01-30T12:47:15;53.67;;;49.88;;
33644;SDS011;19986;48.190;16.366;2024-01-30T12:49:44;55.90;;;52.22;;
33644;SDS011;19986;48.190;16.366;2024-01-30T12:52:11;58.80;;;54.80;;
33644;SDS011;19986;48.190;16.366;2024-01-30T12:54:40;56.50;;;52.78;;
33644;SDS011;19986;48.190;16.366;2024-01-30T12:57:06;58.53;;;54.67;;
33644;SDS011;19986;48.190;16.366;2024-01-30T12:59:36;54.03;;;50.50;;
33644;SDS011;19986;48.190;16.366;2024-01-30T13:02:02;55.65;;;51.95;;
33644;SDS011;19986;48.190;16.366;2024-01-30T13:04:29;57.15;;;53.20;;
33644;SDS011;19986;48.190;16.366;2024-01-30T13:06:55;56.63;;;52.85;;
33644;SDS011;19986;48.190;16.366;2024-01-30T13:09:21;59.75;;;55.95;;
33644;SDS011;19986;48.190;16.366;2024-01-30T13:11:53;57.30;;;53.53;;
33644;SDS011;19986;48.190;16.366;2024-01-30T13:14:18;56.70;;;52.88;;
33644;SDS011;19986;48.190;16.366;2024-01-30T13:16:44;57.03;;;52.92;;
33644;SDS011;19986;48.190;16.366;2024-01-30T13:19:10;58.10;;;54.08;;
33644;SDS011;19986;48.190;16.366;2024-01-30T13:21:37;56.20;;;52.42;;
33644;SDS011;19986;48.190;16.366;2024-01-30T13:24:04;55.40;;;51.70;;
33644;SDS011;19986;48.190;16.366;2024-01-30T13:26:34;56.67;;;52.58;;
33644;SDS011;19986;48.190;16.366;2024-01-30T13:29:00;55.67;;;51.83;;
33644;SDS011;19986;48.190;16.366;2024-01-30T13:31:26;56.75;;;52.97;;
33644;SDS011;19986;48.190;16.366;2024-01-30T13:33:52;55.50;;;51.92;;
33644;SDS011;19986;48.190;16.366;2024-01-30T13:36:20;55.47;;;51.90;;
33644;SDS011;19986;48.190;16.366;2024-01-30T13:38:46;54.70;;;50.95;;
33644;SDS011;19986;48.190;16.366;2024-01-30T13:41:13;55.47;;;51.65;;
33644;SDS011;19986;48.190;16.366;2024-01-30T13:43:39;55.70;;;51.90;;
33644;SDS011;19986;48.190;16.366;2024-01-30T13:46:04;56.05;;;51.97;;
33644;SDS011;19986;48.190;16.366;2024-01-30T13:48:31;55.60;;;51.67;;
33644;SDS011;19986;48.190;16.366;2024-01-30T13:50:57;56.60;;;52.65;;
33644;SDS011;19986;48.190;16.366;2024-01-30T13:53:23;55.65;;;51.97;;
33644;SDS011;19986;48.190;16.366;2024-01-30T13:55:49;56.15;;;52.45;;
33644;SDS011;19986;48.190;16.366;2024-01-30T13:58:15;55.88;;;52.30;;
33644;SDS011;19986;48.190;16.366;2024-01-30T14:00:41;54.00;;;50.40;;
33644;SDS011;19986;48.190;16.366;2024-01-30T14:03:06;54.15;;;50.45;;
33644;SDS011;19986;48.190;16.366;2024-01-30T14:05:32;56.45;;;52.55;;
33644;SDS011;19986;48.190;16.366;2024-01-30T14:07:58;56.88;;;52.97;;